createdAt,value
2022-08-05T00:00:34.505Z,20.72
2022-08-05T00:03:15.753Z,20.69
2022-08-05T00:06:06.562Z,20.51
2022-08-05T00:08:36.282Z,20.39
2022-08-05T00:11:07.561Z,20.41
2022-08-05T00:13:52.915Z,20.55
2022-08-05T00:16:36.304Z,20.62
2022-08-05T00:19:09.383Z,20.70
2022-08-05T00:21:37.273Z,20.68
2022-08-05T00:24:11.120Z,20.64
2022-08-05T00:26:51.791Z,20.67
2022-08-05T00:29:22.618Z,20.64
2022-08-05T00:32:12.278Z,20.67
2022-08-05T00:35:03.902Z,20.60
2022-08-05T00:37:50.707Z,20.49
2022-08-05T00:40:28.056Z,20.37
2022-08-05T00:43:01.431Z,20.50
2022-08-05T00:45:42.958Z,20.45
2022-08-05T00:48:16.076Z,20.39
2022-08-05T00:50:48.084Z,20.35
2022-08-05T00:54:01.187Z,20.41
2022-08-05T00:56:08.316Z,20.34
2022-08-05T00:58:36.946Z,20.18
2022-08-05T01:01:11.945Z,19.90
2022-08-05T01:03:41.380Z,19.77
2022-08-05T01:06:15.266Z,19.76
2022-08-05T01:08:44.493Z,19.63
2022-08-05T01:11:22.118Z,19.72
2022-08-05T01:14:08.615Z,19.72
2022-08-05T01:16:52.454Z,19.75
2022-08-05T01:20:02.424Z,19.68
2022-08-05T01:22:47.119Z,19.72
2022-08-05T01:25:53.545Z,19.79
2022-08-05T01:28:33.979Z,19.73
2022-08-05T01:31:15.347Z,19.75
2022-08-05T01:33:53.650Z,19.74
2022-08-05T01:36:29.552Z,19.77
2022-08-05T01:39:00.906Z,19.78
2022-08-05T01:41:35.529Z,19.75
2022-08-05T01:44:09.823Z,19.78
2022-08-05T01:46:44.595Z,19.72
2022-08-05T01:49:24.273Z,19.70
2022-08-05T01:51:58.723Z,19.72
2022-08-05T01:54:45.939Z,19.73
2022-08-05T01:58:13.193Z,19.72
2022-08-05T02:00:15.002Z,19.69
2022-08-05T02:02:55.053Z,19.66
2022-08-05T02:05:30.342Z,19.66
2022-08-05T02:08:03.277Z,19.62
2022-08-05T02:10:40.270Z,19.61
2022-08-05T02:13:24.961Z,19.61
2022-08-05T02:16:05.536Z,19.59
2022-08-05T02:18:45.161Z,19.59
2022-08-05T02:21:19.240Z,19.60
2022-08-05T02:23:54.860Z,19.61
2022-08-05T02:26:33.739Z,19.59
2022-08-05T02:29:03.936Z,19.65
2022-08-05T02:31:35.855Z,19.55
2022-08-05T02:34:09.243Z,19.58
2022-08-05T02:36:44.228Z,19.58
2022-08-05T02:39:17.207Z,19.53
2022-08-05T02:42:00.689Z,19.53
2022-08-05T02:44:36.384Z,19.54
2022-08-05T02:47:11.212Z,19.57
2022-08-05T02:49:42.869Z,19.64
2022-08-05T02:52:29.996Z,19.70
2022-08-05T02:55:05.519Z,19.86
2022-08-05T02:58:11.547Z,19.88
2022-08-05T03:00:29.603Z,19.91
2022-08-05T03:03:01.586Z,19.95
2022-08-05T03:06:54.924Z,19.95
2022-08-05T03:08:27.097Z,19.95
2022-08-05T03:11:41.276Z,19.98
2022-08-05T03:13:51.581Z,19.95
2022-08-05T03:16:31.655Z,20.08
2022-08-05T03:19:04.210Z,20.16
2022-08-05T03:21:41.600Z,20.09
2022-08-05T03:24:26.889Z,20.06
2022-08-05T03:26:58.944Z,20.09
2022-08-05T03:29:45.747Z,19.93
2022-08-05T03:32:19.501Z,19.91
2022-08-05T03:34:51.373Z,19.99
2022-08-05T03:37:21.607Z,19.98
2022-08-05T03:40:00.930Z,19.96
2022-08-05T03:42:32.903Z,19.90
2022-08-05T03:45:22.709Z,19.85
2022-08-05T03:47:51.477Z,19.88
2022-08-05T03:50:22.959Z,19.86
2022-08-05T03:54:59.343Z,19.80
2022-08-05T03:56:12.094Z,19.80
2022-08-05T03:58:51.264Z,19.81
2022-08-05T04:01:23.811Z,19.78
2022-08-05T04:04:09.427Z,19.62
2022-08-05T04:06:47.807Z,19.63
2022-08-05T04:09:26.380Z,19.44
2022-08-05T04:11:56.788Z,19.35
2022-08-05T04:14:29.759Z,19.20
2022-08-05T04:17:00.647Z,19.12
2022-08-05T04:19:29.932Z,19.13
2022-08-05T04:22:08.358Z,19.12
2022-08-05T04:24:43.838Z,19.10
2022-08-05T04:27:13.820Z,19.00
2022-08-05T04:29:44.257Z,19.00
2022-08-05T04:32:13.120Z,18.89
2022-08-05T04:34:43.296Z,18.86
2022-08-05T04:37:13.118Z,18.79
2022-08-05T04:39:41.108Z,18.81
2022-08-05T04:42:09.561Z,18.85
2022-08-05T04:44:37.561Z,18.83
2022-08-05T04:47:08.627Z,18.96
2022-08-05T04:50:01.603Z,19.04
2022-08-05T04:52:33.366Z,19.01
2022-08-05T04:55:09.586Z,19.04
2022-08-05T04:57:48.039Z,19.06
2022-08-05T05:00:23.626Z,19.00
2022-08-05T05:02:52.115Z,19.07
2022-08-05T05:05:28.335Z,19.13
2022-08-05T05:08:02.351Z,19.18
2022-08-05T05:10:33.394Z,19.27
2022-08-05T05:13:04.041Z,19.25
2022-08-05T05:15:57.108Z,19.33
2022-08-05T05:18:31.405Z,19.41
2022-08-05T05:21:03.553Z,19.49
2022-08-05T05:24:01.705Z,19.47
2022-08-05T05:26:28.778Z,19.44
2022-08-05T05:29:14.729Z,19.43
2022-08-05T05:31:46.168Z,19.46
2022-08-05T05:34:15.485Z,19.39
2022-08-05T05:36:43.992Z,19.47
2022-08-05T05:39:16.523Z,19.58
2022-08-05T05:41:54.276Z,19.59
2022-08-05T05:44:36.811Z,19.62
2022-08-05T05:47:21.679Z,19.59
2022-08-05T05:50:01.484Z,19.62
2022-08-05T05:52:34.593Z,19.68
2022-08-05T05:55:13.225Z,19.72
2022-08-05T05:57:52.231Z,19.69
2022-08-05T06:00:31.773Z,19.56
2022-08-05T06:03:39.855Z,19.59
2022-08-05T06:05:54.042Z,19.53
2022-08-05T06:08:32.744Z,19.43
2022-08-05T06:11:02.418Z,19.45
2022-08-05T06:13:40.768Z,19.44
2022-08-05T06:16:30.697Z,19.46
2022-08-05T06:19:01.236Z,19.62
2022-08-05T06:21:35.875Z,19.65
2022-08-05T06:24:07.775Z,19.71
2022-08-05T06:26:51.464Z,19.77
2022-08-05T06:29:42.931Z,19.73
2022-08-05T06:32:24.943Z,19.58
2022-08-05T06:34:56.896Z,19.57
2022-08-05T06:37:55.818Z,19.49
2022-08-05T06:40:21.244Z,19.56
2022-08-05T06:42:52.746Z,19.43
2022-08-05T06:46:03.080Z,19.28
2022-08-05T06:48:36.497Z,19.20
2022-08-05T06:50:58.030Z,19.32
2022-08-05T06:53:28.384Z,19.36
2022-08-05T06:55:58.666Z,19.32
2022-08-05T06:58:34.866Z,19.35
2022-08-05T07:01:06.752Z,19.22
2022-08-05T07:03:35.578Z,19.23
2022-08-05T07:06:06.101Z,19.19
2022-08-05T07:08:47.847Z,19.24
2022-08-05T07:11:22.529Z,19.28
2022-08-05T07:14:20.569Z,19.22
2022-08-05T07:17:58.677Z,19.25
2022-08-05T07:22:42.131Z,19.23
2022-08-05T07:25:54.018Z,19.07
2022-08-05T07:28:05.349Z,19.02
2022-08-05T07:30:39.878Z,18.80
2022-08-05T07:33:16.028Z,18.76
2022-08-05T07:36:04.063Z,18.87
2022-08-05T07:38:42.865Z,19.12
2022-08-05T07:42:13.712Z,19.28
2022-08-05T07:44:18.492Z,19.28
2022-08-05T07:46:50.165Z,19.35
2022-08-05T07:49:20.436Z,19.47
2022-08-05T07:51:53.691Z,19.55
2022-08-05T07:54:30.582Z,19.55
2022-08-05T07:57:17.766Z,19.59
2022-08-05T07:59:48.890Z,19.54
2022-08-05T08:02:26.576Z,19.61
2022-08-05T08:04:59.138Z,19.48
2022-08-05T08:07:28.940Z,19.33
2022-08-05T08:10:11.504Z,19.23
2022-08-05T08:12:48.759Z,19.28
2022-08-05T08:15:18.156Z,19.18
2022-08-05T08:18:14.000Z,19.19
2022-08-05T08:21:02.801Z,19.18
2022-08-05T08:24:03.054Z,18.83
2022-08-05T08:26:26.704Z,18.85
2022-08-05T08:29:09.720Z,18.79
2022-08-05T08:31:48.713Z,18.67
2022-08-05T08:34:30.694Z,18.74
2022-08-05T08:37:03.426Z,18.74
2022-08-05T08:39:37.815Z,18.63
2022-08-05T08:42:32.362Z,18.72
2022-08-05T08:45:22.491Z,18.83
2022-08-05T08:48:06.805Z,18.94
2022-08-05T08:51:03.094Z,18.96
2022-08-05T08:53:44.267Z,19.04
2022-08-05T08:56:13.124Z,19.05
2022-08-05T08:58:47.739Z,19.10
2022-08-05T09:01:18.757Z,19.12
2022-08-05T09:03:54.411Z,19.16
2022-08-05T09:06:30.209Z,19.28
2022-08-05T09:09:02.235Z,19.30
2022-08-05T09:11:53.027Z,19.09
2022-08-05T09:14:56.508Z,19.11
2022-08-05T09:17:41.326Z,19.05
2022-08-05T09:20:08.559Z,19.13
2022-08-05T09:23:19.442Z,19.25
2022-08-05T09:26:02.277Z,19.34
2022-08-05T09:28:34.857Z,19.40
2022-08-05T09:31:43.427Z,19.57
2022-08-05T09:33:59.115Z,19.50
2022-08-05T09:36:53.856Z,19.56
2022-08-05T09:39:39.380Z,19.74
2022-08-05T09:42:23.347Z,19.97
2022-08-05T09:45:17.385Z,20.04
2022-08-05T09:47:57.434Z,20.16
2022-08-05T09:50:38.511Z,20.28
2022-08-05T09:53:22.940Z,20.36
2022-08-05T09:56:03.780Z,20.39
2022-08-05T09:58:32.980Z,20.37
2022-08-05T10:01:14.801Z,20.24
2022-08-05T10:03:59.472Z,19.89
2022-08-05T10:06:30.982Z,19.88
2022-08-05T10:09:24.974Z,19.97
2022-08-05T10:12:30.269Z,20.16
2022-08-05T10:15:21.589Z,19.85
2022-08-05T10:18:13.331Z,20.09
2022-08-05T10:20:48.318Z,20.43
2022-08-05T10:23:34.168Z,20.68
2022-08-05T10:26:15.096Z,20.69
2022-08-05T10:28:49.911Z,20.91
2022-08-05T10:32:47.404Z,20.90
2022-08-05T10:34:09.120Z,21.04
2022-08-05T10:36:40.854Z,21.62
2022-08-05T10:39:24.330Z,21.61
2022-08-05T10:42:02.519Z,21.95
2022-08-05T10:44:33.849Z,21.99
2022-08-05T10:47:26.856Z,22.14
2022-08-05T10:50:33.151Z,22.29
2022-08-05T10:53:00.188Z,22.42
2022-08-05T10:55:28.517Z,22.30
2022-08-05T10:58:11.872Z,22.51
2022-08-05T11:00:48.270Z,22.93
2022-08-05T11:03:26.971Z,22.86
2022-08-05T11:06:15.974Z,22.88
2022-08-05T11:09:17.375Z,23.06
2022-08-05T11:11:52.730Z,23.17
2022-08-05T11:14:57.598Z,23.67
2022-08-05T11:18:09.508Z,24.10
2022-08-05T11:20:44.738Z,24.57
2022-08-05T11:24:04.240Z,24.63
2022-08-05T11:26:27.998Z,24.75
2022-08-05T11:28:58.696Z,25.00
2022-08-05T11:31:57.742Z,24.74
2022-08-05T11:34:39.338Z,25.04
2022-08-05T11:38:30.517Z,25.52
2022-08-05T11:40:03.684Z,25.29
2022-08-05T11:42:37.804Z,25.64
2022-08-05T11:45:14.194Z,25.73
2022-08-05T11:47:54.469Z,25.27
2022-08-05T11:50:25.174Z,25.26
2022-08-05T11:52:57.743Z,24.99
2022-08-05T11:55:32.175Z,24.57
2022-08-05T11:58:11.011Z,24.37
2022-08-05T12:00:44.233Z,24.59
2022-08-05T12:03:28.586Z,24.61
2022-08-05T12:06:10.159Z,24.46
2022-08-05T12:08:49.983Z,24.36
2022-08-05T12:11:21.530Z,24.33
2022-08-05T12:13:55.241Z,24.54
2022-08-05T12:16:29.484Z,24.57
2022-08-05T12:18:59.054Z,24.93
2022-08-05T12:21:31.870Z,25.08
2022-08-05T12:24:04.472Z,25.64
2022-08-05T12:26:37.645Z,26.17
2022-08-05T12:29:16.209Z,26.46
2022-08-05T12:31:53.476Z,26.63
2022-08-05T12:34:26.854Z,26.14
2022-08-05T12:37:17.142Z,26.02
2022-08-05T12:40:03.539Z,26.04
2022-08-05T12:42:40.609Z,25.77
2022-08-05T12:45:10.556Z,25.66
2022-08-05T12:47:43.511Z,25.35
2022-08-05T12:50:31.001Z,25.00
2022-08-05T12:53:00.401Z,24.77
2022-08-05T12:55:33.073Z,24.49
2022-08-05T12:58:38.228Z,24.29
2022-08-05T13:02:00.103Z,24.71
2022-08-05T13:03:42.844Z,24.65
2022-08-05T13:06:17.174Z,24.50
2022-08-05T13:08:50.916Z,25.36
2022-08-05T13:11:25.565Z,26.21
2022-08-05T13:14:24.666Z,27.17
2022-08-05T13:17:10.164Z,27.13
2022-08-05T13:19:51.605Z,26.77
2022-08-05T13:22:27.697Z,26.44
2022-08-05T13:25:07.997Z,25.69
2022-08-05T13:27:52.320Z,25.15
2022-08-05T13:34:26.165Z,25.78
2022-08-05T13:36:54.860Z,26.52
2022-08-05T13:39:24.393Z,27.26
2022-08-05T13:42:14.406Z,27.90
2022-08-05T13:44:45.631Z,27.87
2022-08-05T13:47:28.159Z,28.08
2022-08-05T13:50:11.223Z,27.98
2022-08-05T13:52:42.775Z,27.75
2022-08-05T13:55:11.987Z,28.21
2022-08-05T13:58:01.288Z,27.87
2022-08-05T14:00:29.121Z,27.50
2022-08-05T14:02:57.622Z,26.72
2022-08-05T14:05:48.528Z,26.44
2022-08-05T14:08:21.006Z,26.37
2022-08-05T14:10:59.742Z,26.04
2022-08-05T14:13:48.285Z,26.62
2022-08-05T14:16:19.209Z,26.86
2022-08-05T14:18:47.247Z,27.98
2022-08-05T14:21:23.875Z,27.59
2022-08-05T14:24:04.835Z,27.92
2022-08-05T14:26:35.544Z,28.29
2022-08-05T14:29:16.035Z,27.75
2022-08-05T14:32:03.085Z,28.23
2022-08-05T14:34:35.270Z,28.42
2022-08-05T14:37:04.697Z,29.01
2022-08-05T14:39:50.157Z,29.01
2022-08-05T14:42:25.138Z,28.00
2022-08-05T14:44:56.678Z,27.65
2022-08-05T14:48:02.768Z,27.49
2022-08-05T14:50:17.684Z,27.87
2022-08-05T14:52:53.509Z,27.90
2022-08-05T14:55:28.749Z,27.33
2022-08-05T14:58:11.296Z,27.64
2022-08-05T15:00:58.035Z,27.23
2022-08-05T15:03:33.360Z,27.29
2022-08-05T15:06:07.482Z,27.24
2022-08-05T15:08:59.725Z,27.83
2022-08-05T15:11:52.724Z,27.43
2022-08-05T15:14:33.471Z,27.02
2022-08-05T15:17:09.676Z,27.33
2022-08-05T15:19:38.982Z,27.30
2022-08-05T15:22:08.736Z,26.81
2022-08-05T15:24:36.904Z,26.61
2022-08-05T15:27:09.144Z,26.49
2022-08-05T15:29:41.857Z,25.81
2022-08-05T15:32:11.782Z,25.65
2022-08-05T15:34:39.590Z,25.91
2022-08-05T15:37:14.753Z,26.21
2022-08-05T15:40:59.156Z,26.24
2022-08-05T15:42:55.653Z,26.58
2022-08-05T15:45:23.148Z,26.26
2022-08-05T15:48:09.830Z,26.44
2022-08-05T15:50:45.625Z,26.22
2022-08-05T15:53:13.903Z,26.42
2022-08-05T15:56:04.084Z,26.46
2022-08-05T15:58:35.497Z,26.19
2022-08-05T16:01:16.985Z,26.35
2022-08-05T16:03:48.318Z,26.25
2022-08-05T16:06:20.117Z,26.42
2022-08-05T16:08:50.287Z,26.40
2022-08-05T16:11:42.713Z,26.14
2022-08-05T16:14:09.397Z,25.64
2022-08-05T16:16:37.309Z,25.78
2022-08-05T16:19:06.540Z,26.20
2022-08-05T16:22:00.484Z,26.10
2022-08-05T16:24:36.074Z,25.61
2022-08-05T16:27:15.734Z,25.38
2022-08-05T16:29:50.066Z,25.43
2022-08-05T16:32:28.412Z,25.52
2022-08-05T16:35:07.885Z,25.47
2022-08-05T16:38:15.047Z,25.74
2022-08-05T16:40:29.149Z,25.62
2022-08-05T16:42:57.507Z,25.64
2022-08-05T16:46:04.637Z,25.67
2022-08-05T16:48:26.102Z,25.96
2022-08-05T16:51:02.521Z,25.66
2022-08-05T16:54:04.897Z,25.20
2022-08-05T16:56:33.501Z,24.77
2022-08-05T16:59:08.099Z,24.98
2022-08-05T17:01:54.084Z,25.38
2022-08-05T17:04:26.320Z,25.39
2022-08-05T17:07:01.434Z,24.87
2022-08-05T17:09:57.200Z,24.79
2022-08-05T17:12:22.764Z,24.94
2022-08-05T17:15:09.403Z,25.06
2022-08-05T17:17:42.816Z,24.99
2022-08-05T17:20:14.697Z,24.88
2022-08-05T17:22:44.835Z,24.62
2022-08-05T17:25:33.657Z,24.61
2022-08-05T17:28:02.554Z,24.63
2022-08-05T17:30:32.128Z,24.03
2022-08-05T17:33:00.551Z,23.82
2022-08-05T17:35:32.619Z,23.70
2022-08-05T17:38:18.248Z,23.70
2022-08-05T17:40:47.630Z,23.69
2022-08-05T17:43:17.533Z,23.63
2022-08-05T17:45:45.507Z,23.50
2022-08-05T17:48:13.427Z,23.18
2022-08-05T17:50:44.137Z,23.04
2022-08-05T17:53:12.214Z,23.08
2022-08-05T17:55:41.939Z,22.89
2022-08-05T17:58:13.527Z,22.56
2022-08-05T18:00:47.594Z,22.35
2022-08-05T18:03:56.498Z,22.34
2022-08-05T18:06:11.715Z,22.13
2022-08-05T18:08:44.151Z,21.92
2022-08-05T18:11:24.150Z,21.88
2022-08-05T18:14:04.258Z,21.93
2022-08-05T18:16:51.306Z,21.64
2022-08-05T18:19:22.495Z,21.73
2022-08-05T18:22:08.567Z,21.66
2022-08-05T18:24:40.186Z,21.42
2022-08-05T18:27:12.373Z,21.31
2022-08-05T18:29:51.938Z,21.23
2022-08-05T18:32:27.717Z,21.23
2022-08-05T18:34:57.518Z,21.20
2022-08-05T18:37:34.006Z,21.17
2022-08-05T18:40:34.693Z,21.06
2022-08-05T18:43:00.287Z,20.91
2022-08-05T18:45:41.368Z,20.87
2022-08-05T18:48:11.041Z,20.82
2022-08-05T18:51:01.760Z,20.86
2022-08-05T18:53:50.388Z,20.78
2022-08-05T18:56:21.734Z,20.75
2022-08-05T18:58:54.921Z,20.61
2022-08-05T19:01:33.225Z,20.55
2022-08-05T19:04:24.120Z,20.30
2022-08-05T19:06:53.769Z,20.33
2022-08-05T19:09:21.827Z,20.31
2022-08-05T19:11:59.966Z,20.10
2022-08-05T19:14:44.673Z,20.09
2022-08-05T19:17:19.942Z,20.01
2022-08-05T19:19:49.953Z,19.94
2022-08-05T19:22:17.995Z,19.85
2022-08-05T19:24:55.804Z,19.77
2022-08-05T19:27:27.828Z,19.66
2022-08-05T19:30:01.502Z,19.65
2022-08-05T19:32:30.783Z,19.56
2022-08-05T19:34:58.639Z,19.49
2022-08-05T19:37:29.985Z,19.41
2022-08-05T19:40:15.346Z,19.35
2022-08-05T19:43:00.825Z,19.32
2022-08-05T19:45:36.797Z,19.40
2022-08-05T19:48:06.313Z,19.22
2022-08-05T19:50:35.112Z,19.22
2022-08-05T19:53:09.344Z,19.03
2022-08-05T19:56:15.023Z,19.08
2022-08-05T19:58:29.238Z,19.18
2022-08-05T20:00:59.359Z,19.11
2022-08-05T20:03:38.734Z,19.00
2022-08-05T20:06:15.389Z,18.92
2022-08-05T20:08:47.540Z,18.96
2022-08-05T20:11:17.796Z,18.88
2022-08-05T20:13:59.148Z,18.85
2022-08-05T20:16:36.604Z,18.92
2022-08-05T20:19:05.339Z,18.88
2022-08-05T20:21:33.212Z,18.85
2022-08-05T20:24:01.229Z,18.73
2022-08-05T20:26:29.554Z,18.66
2022-08-05T20:29:00.642Z,18.58
2022-08-05T20:31:41.998Z,18.38
2022-08-05T20:34:18.956Z,18.24
2022-08-05T20:36:47.900Z,18.29
2022-08-05T20:39:16.498Z,18.21
2022-08-05T20:41:47.617Z,18.15
2022-08-05T20:44:29.389Z,18.17
2022-08-05T20:46:59.821Z,18.09
2022-08-05T20:49:29.498Z,17.97
2022-08-05T20:52:01.461Z,17.93
2022-08-05T20:54:42.942Z,17.88
2022-08-05T20:57:41.803Z,17.82
2022-08-05T21:00:19.892Z,17.65
2022-08-05T21:02:54.482Z,17.68
2022-08-05T21:05:38.054Z,17.69
2022-08-05T21:08:14.637Z,17.72
2022-08-05T21:10:48.799Z,17.79
2022-08-05T21:13:25.983Z,17.71
2022-08-05T21:15:54.889Z,17.59
2022-08-05T21:18:23.496Z,17.62
2022-08-05T21:20:53.087Z,17.42
2022-08-05T21:23:21.408Z,17.41
2022-08-05T21:25:50.342Z,17.43
2022-08-05T21:28:18.797Z,17.44
2022-08-05T21:30:51.860Z,17.41
2022-08-05T21:33:23.229Z,17.34
2022-08-05T21:35:55.839Z,17.25
2022-08-05T21:38:27.858Z,17.24
2022-08-05T21:40:55.986Z,17.14
2022-08-05T21:43:24.201Z,17.01
2022-08-05T21:45:57.875Z,16.97
2022-08-05T21:48:28.576Z,16.85
2022-08-05T21:50:58.030Z,16.77
2022-08-05T21:53:28.011Z,16.72
2022-08-05T21:56:06.237Z,16.86
2022-08-05T21:58:57.112Z,16.86
2022-08-05T22:01:26.248Z,16.81
2022-08-05T22:03:57.268Z,16.74
2022-08-05T22:06:35.105Z,16.63
2022-08-05T22:09:13.221Z,16.48
2022-08-05T22:11:47.007Z,16.39
2022-08-05T22:14:37.178Z,16.40
2022-08-05T22:17:07.056Z,16.43
2022-08-05T22:20:03.059Z,16.39
2022-08-05T22:22:27.577Z,16.28
2022-08-05T22:25:18.080Z,16.28
2022-08-05T22:28:09.268Z,16.29
2022-08-05T22:30:44.123Z,16.31
2022-08-05T22:33:55.939Z,16.33
2022-08-05T22:36:15.045Z,16.35
2022-08-05T22:38:48.070Z,16.19
2022-08-05T22:42:04.860Z,16.09
2022-08-05T22:44:07.816Z,16.05
2022-08-05T22:46:40.131Z,15.92
2022-08-05T22:49:23.140Z,15.82
2022-08-05T22:52:05.527Z,15.77
2022-08-05T22:54:37.469Z,15.81
2022-08-05T22:57:07.419Z,15.77
2022-08-05T22:59:45.489Z,15.75
2022-08-05T23:02:17.372Z,15.69
2022-08-05T23:04:51.577Z,15.58
2022-08-05T23:07:21.834Z,15.65
2022-08-05T23:10:00.003Z,15.60
2022-08-05T23:12:32.687Z,15.61
2022-08-05T23:15:03.603Z,15.58
2022-08-05T23:17:37.138Z,15.62
2022-08-05T23:20:17.791Z,15.52
2022-08-05T23:22:47.445Z,15.51
2022-08-05T23:25:53.571Z,15.48
2022-08-05T23:28:07.646Z,15.46
2022-08-05T23:30:39.793Z,15.49
2022-08-05T23:33:21.936Z,15.43
2022-08-05T23:35:56.244Z,15.40
2022-08-05T23:38:25.941Z,15.39
2022-08-05T23:40:55.982Z,15.44
2022-08-05T23:43:24.983Z,15.42
2022-08-05T23:46:21.367Z,15.30
2022-08-05T23:48:59.847Z,15.17
2022-08-05T23:51:54.204Z,15.17
2022-08-05T23:54:26.483Z,15.20
2022-08-05T23:57:04.618Z,15.07
